sensor_id;sensor_type;location;lat;lon;timestamp;temperature;humidity
1367;DHT22;16877;48.810;9.282;2023-01-19T00:01:29;10.60;46.40
1367;DHT22;16877;48.810;9.282;2023-01-19T00:03:57;10.70;46.40
1367;DHT22;16877;48.810;9.282;2023-01-19T00:06:24;10.60;46.30
1367;DHT22;16877;48.810;9.282;2023-01-19T00:08:58;10.60;46.30
1367;DHT22;16877;48.810;9.282;2023-01-19T00:11:26;10.60;46.30
1367;DHT22;16877;48.810;9.282;2023-01-19T00:13:53;10.60;46.50
1367;DHT22;16877;48.810;9.282;2023-01-19T00:16:21;10.50;46.50
1367;DHT22;16877;48.810;9.282;2023-01-19T00:18:49;10.50;46.50
1367;DHT22;16877;48.810;9.282;2023-01-19T00:21:17;10.60;46.80
1367;DHT22;16877;48.810;9.282;2023-01-19T00:23:46;10.50;46.60
1367;DHT22;16877;48.810;9.282;2023-01-19T00:26:18;10.50;46.50
1367;DHT22;16877;48.810;9.282;2023-01-19T00:28:46;10.50;46.50
1367;DHT22;16877;48.810;9.282;2023-01-19T00:31:14;10.50;46.50
1367;DHT22;16877;48.810;9.282;2023-01-19T00:33:45;10.40;46.60
1367;DHT22;16877;48.810;9.282;2023-01-19T00:36:13;10.50;46.70
1367;DHT22;16877;48.810;9.282;2023-01-19T00:38:41;10.40;46.60
1367;DHT22;16877;48.810;9.282;2023-01-19T00:41:09;10.40;46.60
1367;DHT22;16877;48.810;9.282;2023-01-19T00:43:38;10.40;46.70
1367;DHT22;16877;48.810;9.282;2023-01-19T00:46:04;10.40;46.70
1367;DHT22;16877;48.810;9.282;2023-01-19T00:48:32;10.40;46.80
1367;DHT22;16877;48.810;9.282;2023-01-19T00:51:00;10.50;47.10
1367;DHT22;16877;48.810;9.282;2023-01-19T00:53:28;10.50;46.90
1367;DHT22;16877;48.810;9.282;2023-01-19T00:55:56;10.40;46.80
1367;DHT22;16877;48.810;9.282;2023-01-19T00:58:24;10.40;46.80
1367;DHT22;16877;48.810;9.282;2023-01-19T01:00:54;10.40;46.70
1367;DHT22;16877;48.810;9.282;2023-01-19T01:03:22;10.40;47.00
1367;DHT22;16877;48.810;9.282;2023-01-19T01:05:52;10.40;46.40
1367;DHT22;16877;48.810;9.282;2023-01-19T01:08:19;10.40;46.50
1367;DHT22;16877;48.810;9.282;2023-01-19T01:10:49;10.40;46.60
1367;DHT22;16877;48.810;9.282;2023-01-19T01:13:17;10.40;46.70
1367;DHT22;16877;48.810;9.282;2023-01-19T01:15:48;10.40;46.70
1367;DHT22;16877;48.810;9.282;2023-01-19T01:18:17;10.40;46.60
1367;DHT22;16877;48.810;9.282;2023-01-19T01:20:44;10.30;46.50
1367;DHT22;16877;48.810;9.282;2023-01-19T01:23:12;10.30;46.60
1367;DHT22;16877;48.810;9.282;2023-01-19T01:25:39;10.30;46.30
1367;DHT22;16877;48.810;9.282;2023-01-19T01:28:08;10.30;46.10
1367;DHT22;16877;48.810;9.282;2023-01-19T01:30:36;10.20;46.10
1367;DHT22;16877;48.810;9.282;2023-01-19T01:33:05;10.20;46.30
1367;DHT22;16877;48.810;9.282;2023-01-19T01:35:34;10.20;46.30
1367;DHT22;16877;48.810;9.282;2023-01-19T01:38:02;10.20;46.40
1367;DHT22;16877;48.810;9.282;2023-01-19T01:40:29;10.10;46.20
1367;DHT22;16877;48.810;9.282;2023-01-19T01:42:56;10.10;46.20
1367;DHT22;16877;48.810;9.282;2023-01-19T01:45:30;10.10;46.30
1367;DHT22;16877;48.810;9.282;2023-01-19T01:48:02;10.10;46.40
1367;DHT22;16877;48.810;9.282;2023-01-19T01:50:36;10.10;46.40
1367;DHT22;16877;48.810;9.282;2023-01-19T01:53:26;10.00;46.40
1367;DHT22;16877;48.810;9.282;2023-01-19T01:55:55;10.10;46.50
1367;DHT22;16877;48.810;9.282;2023-01-19T01:58:23;10.10;46.60
1367;DHT22;16877;48.810;9.282;2023-01-19T02:00:50;10.10;46.40
1367;DHT22;16877;48.810;9.282;2023-01-19T02:03:35;10.00;46.40
1367;DHT22;16877;48.810;9.282;2023-01-19T02:06:05;10.00;46.50
1367;DHT22;16877;48.810;9.282;2023-01-19T02:08:37;10.10;46.70
1367;DHT22;16877;48.810;9.282;2023-01-19T02:11:22;10.00;46.70
1367;DHT22;16877;48.810;9.282;2023-01-19T02:14:07;10.10;46.60
1367;DHT22;16877;48.810;9.282;2023-01-19T02:16:35;10.00;46.30
1367;DHT22;16877;48.810;9.282;2023-01-19T02:19:04;10.00;46.20
1367;DHT22;16877;48.810;9.282;2023-01-19T02:21:37;10.00;46.40
1367;DHT22;16877;48.810;9.282;2023-01-19T02:24:09;10.00;46.40
1367;DHT22;16877;48.810;9.282;2023-01-19T02:26:39;10.00;46.40
1367;DHT22;16877;48.810;9.282;2023-01-19T02:29:23;10.00;46.50
1367;DHT22;16877;48.810;9.282;2023-01-19T02:32:00;10.00;46.50
1367;DHT22;16877;48.810;9.282;2023-01-19T02:34:30;10.00;46.70
1367;DHT22;16877;48.810;9.282;2023-01-19T02:37:00;10.00;46.40
1367;DHT22;16877;48.810;9.282;2023-01-19T02:39:35;10.00;46.40
1367;DHT22;16877;48.810;9.282;2023-01-19T02:42:06;10.00;46.40
1367;DHT22;16877;48.810;9.282;2023-01-19T02:44:51;10.00;46.40
1367;DHT22;16877;48.810;9.282;2023-01-19T02:47:19;10.00;46.10
1367;DHT22;16877;48.810;9.282;2023-01-19T02:50:02;10.00;46.30
1367;DHT22;16877;48.810;9.282;2023-01-19T02:52:29;10.00;46.30
1367;DHT22;16877;48.810;9.282;2023-01-19T02:55:12;10.00;46.30
1367;DHT22;16877;48.810;9.282;2023-01-19T02:57:52;10.00;46.30
1367;DHT22;16877;48.810;9.282;2023-01-19T03:00:32;10.00;46.40
1367;DHT22;16877;48.810;9.282;2023-01-19T03:03:14;10.00;46.30
1367;DHT22;16877;48.810;9.282;2023-01-19T03:05:53;10.00;46.20
1367;DHT22;16877;48.810;9.282;2023-01-19T03:08:31;9.90;47.00
1367;DHT22;16877;48.810;9.282;2023-01-19T03:11:02;10.00;46.30
1367;DHT22;16877;48.810;9.282;2023-01-19T03:13:38;10.00;46.40
1367;DHT22;16877;48.810;9.282;2023-01-19T03:16:13;10.00;46.30
1367;DHT22;16877;48.810;9.282;2023-01-19T03:18:45;10.00;46.50
1367;DHT22;16877;48.810;9.282;2023-01-19T03:21:15;10.00;46.50
1367;DHT22;16877;48.810;9.282;2023-01-19T03:23:45;10.00;46.30
1367;DHT22;16877;48.810;9.282;2023-01-19T03:26:17;10.00;46.50
1367;DHT22;16877;48.810;9.282;2023-01-19T03:28:45;10.00;46.40
1367;DHT22;16877;48.810;9.282;2023-01-19T03:31:16;10.00;46.50
1367;DHT22;16877;48.810;9.282;2023-01-19T03:33:48;10.10;46.50
1367;DHT22;16877;48.810;9.282;2023-01-19T03:36:20;10.10;46.50
1367;DHT22;16877;48.810;9.282;2023-01-19T03:38:51;10.10;46.70
1367;DHT22;16877;48.810;9.282;2023-01-19T03:41:23;10.10;46.60
1367;DHT22;16877;48.810;9.282;2023-01-19T03:43:53;10.10;46.80
1367;DHT22;16877;48.810;9.282;2023-01-19T03:46:22;10.20;47.00
1367;DHT22;16877;48.810;9.282;2023-01-19T03:48:52;10.20;46.80
1367;DHT22;16877;48.810;9.282;2023-01-19T03:51:21;10.20;47.00
1367;DHT22;16877;48.810;9.282;2023-01-19T03:53:48;10.30;47.10
1367;DHT22;16877;48.810;9.282;2023-01-19T03:56:21;10.30;47.00
1367;DHT22;16877;48.810;9.282;2023-01-19T03:58:49;10.30;46.70
1367;DHT22;16877;48.810;9.282;2023-01-19T04:01:17;10.20;46.40
1367;DHT22;16877;48.810;9.282;2023-01-19T04:03:47;10.20;46.60
1367;DHT22;16877;48.810;9.282;2023-01-19T04:06:15;10.20;46.50
1367;DHT22;16877;48.810;9.282;2023-01-19T04:08:43;10.20;46.60
1367;DHT22;16877;48.810;9.282;2023-01-19T04:11:11;10.30;46.60
1367;DHT22;16877;48.810;9.282;2023-01-19T04:13:40;10.30;46.50
1367;DHT22;16877;48.810;9.282;2023-01-19T04:16:09;10.20;46.20
1367;DHT22;16877;48.810;9.282;2023-01-19T04:18:37;10.20;46.00
1367;DHT22;16877;48.810;9.282;2023-01-19T04:21:05;10.10;45.80
1367;DHT22;16877;48.810;9.282;2023-01-19T04:23:35;10.00;45.70
1367;DHT22;16877;48.810;9.282;2023-01-19T04:26:05;9.90;46.40
1367;DHT22;16877;48.810;9.282;2023-01-19T04:28:33;9.90;46.50
1367;DHT22;16877;48.810;9.282;2023-01-19T04:31:03;9.90;46.60
1367;DHT22;16877;48.810;9.282;2023-01-19T04:33:31;9.90;46.70
1367;DHT22;16877;48.810;9.282;2023-01-19T04:35:59;9.80;46.50
1367;DHT22;16877;48.810;9.282;2023-01-19T04:38:26;9.80;46.60
1367;DHT22;16877;48.810;9.282;2023-01-19T04:40:54;9.80;46.70
1367;DHT22;16877;48.810;9.282;2023-01-19T04:43:22;9.70;46.60
1367;DHT22;16877;48.810;9.282;2023-01-19T04:45:50;9.80;46.80
1367;DHT22;16877;48.810;9.282;2023-01-19T04:48:19;9.70;46.70
1367;DHT22;16877;48.810;9.282;2023-01-19T04:50:46;9.70;47.00
1367;DHT22;16877;48.810;9.282;2023-01-19T04:53:14;9.70;47.10
1367;DHT22;16877;48.810;9.282;2023-01-19T04:55:43;9.70;47.00
1367;DHT22;16877;48.810;9.282;2023-01-19T04:58:11;9.70;47.00
1367;DHT22;16877;48.810;9.282;2023-01-19T05:00:39;9.70;47.00
1367;DHT22;16877;48.810;9.282;2023-01-19T05:03:06;9.70;47.30
1367;DHT22;16877;48.810;9.282;2023-01-19T05:05:37;9.70;47.30
1367;DHT22;16877;48.810;9.282;2023-01-19T05:08:05;9.70;47.20
1367;DHT22;16877;48.810;9.282;2023-01-19T05:10:32;9.70;47.10
1367;DHT22;16877;48.810;9.282;2023-01-19T05:13:01;9.70;47.10
1367;DHT22;16877;48.810;9.282;2023-01-19T05:15:29;9.70;47.30
1367;DHT22;16877;48.810;9.282;2023-01-19T05:17:56;9.70;47.30
1367;DHT22;16877;48.810;9.282;2023-01-19T05:20:24;9.70;47.10
1367;DHT22;16877;48.810;9.282;2023-01-19T05:23:08;9.70;47.10
1367;DHT22;16877;48.810;9.282;2023-01-19T05:25:35;9.70;47.50
1367;DHT22;16877;48.810;9.282;2023-01-19T05:28:04;9.70;47.00
1367;DHT22;16877;48.810;9.282;2023-01-19T05:30:31;9.70;47.00
1367;DHT22;16877;48.810;9.282;2023-01-19T05:33:01;9.70;46.90
1367;DHT22;16877;48.810;9.282;2023-01-19T05:35:31;9.70;47.00
1367;DHT22;16877;48.810;9.282;2023-01-19T05:37:58;9.70;47.10
1367;DHT22;16877;48.810;9.282;2023-01-19T05:40:27;9.70;47.10
1367;DHT22;16877;48.810;9.282;2023-01-19T05:42:56;9.70;46.90
1367;DHT22;16877;48.810;9.282;2023-01-19T05:45:25;9.60;46.80
1367;DHT22;16877;48.810;9.282;2023-01-19T05:47:52;9.60;46.80
1367;DHT22;16877;48.810;9.282;2023-01-19T05:50:20;9.60;47.00
1367;DHT22;16877;48.810;9.282;2023-01-19T05:52:47;9.70;47.10
1367;DHT22;16877;48.810;9.282;2023-01-19T05:55:17;9.70;47.10
1367;DHT22;16877;48.810;9.282;2023-01-19T05:57:47;9.60;46.90
1367;DHT22;16877;48.810;9.282;2023-01-19T06:00:15;9.60;46.80
1367;DHT22;16877;48.810;9.282;2023-01-19T06:02:42;9.70;47.00
1367;DHT22;16877;48.810;9.282;2023-01-19T06:05:11;9.70;47.10
1367;DHT22;16877;48.810;9.282;2023-01-19T06:07:39;9.70;46.90
1367;DHT22;16877;48.810;9.282;2023-01-19T06:10:07;9.60;46.60
1367;DHT22;16877;48.810;9.282;2023-01-19T06:12:37;9.60;46.70
1367;DHT22;16877;48.810;9.282;2023-01-19T06:15:08;9.60;46.80
1367;DHT22;16877;48.810;9.282;2023-01-19T06:17:36;9.60;47.00
1367;DHT22;16877;48.810;9.282;2023-01-19T06:20:03;9.60;47.10
1367;DHT22;16877;48.810;9.282;2023-01-19T06:22:31;9.60;47.10
1367;DHT22;16877;48.810;9.282;2023-01-19T06:24:59;9.60;47.00
1367;DHT22;16877;48.810;9.282;2023-01-19T06:27:27;9.60;47.10
1367;DHT22;16877;48.810;9.282;2023-01-19T06:29:58;9.70;47.30
1367;DHT22;16877;48.810;9.282;2023-01-19T06:32:28;9.70;47.70
1367;DHT22;16877;48.810;9.282;2023-01-19T06:34:57;9.70;47.80
1367;DHT22;16877;48.810;9.282;2023-01-19T06:37:24;9.80;48.00
1367;DHT22;16877;48.810;9.282;2023-01-19T06:39:53;9.80;48.00
1367;DHT22;16877;48.810;9.282;2023-01-19T06:42:20;9.80;47.90
1367;DHT22;16877;48.810;9.282;2023-01-19T06:44:48;9.80;48.00
1367;DHT22;16877;48.810;9.282;2023-01-19T06:47:15;9.80;47.70
1367;DHT22;16877;48.810;9.282;2023-01-19T06:49:45;9.90;47.60
1367;DHT22;16877;48.810;9.282;2023-01-19T06:52:13;9.80;47.90
1367;DHT22;16877;48.810;9.282;2023-01-19T06:54:42;9.90;48.00
1367;DHT22;16877;48.810;9.282;2023-01-19T06:57:09;10.00;47.30
1367;DHT22;16877;48.810;9.282;2023-01-19T06:59:36;10.00;47.70
1367;DHT22;16877;48.810;9.282;2023-01-19T07:02:03;10.00;47.60
1367;DHT22;16877;48.810;9.282;2023-01-19T07:04:32;10.10;47.60
1367;DHT22;16877;48.810;9.282;2023-01-19T07:07:01;10.10;47.60
1367;DHT22;16877;48.810;9.282;2023-01-19T07:09:29;10.10;47.70
1367;DHT22;16877;48.810;9.282;2023-01-19T07:12:03;10.20;47.80
1367;DHT22;16877;48.810;9.282;2023-01-19T07:14:32;10.20;47.70
1367;DHT22;16877;48.810;9.282;2023-01-19T07:17:15;10.20;47.70
1367;DHT22;16877;48.810;9.282;2023-01-19T07:19:43;10.20;47.60
1367;DHT22;16877;48.810;9.282;2023-01-19T07:22:18;10.20;47.50
1367;DHT22;16877;48.810;9.282;2023-01-19T07:24:47;10.20;47.10
1367;DHT22;16877;48.810;9.282;2023-01-19T07:27:14;10.30;47.10
1367;DHT22;16877;48.810;9.282;2023-01-19T07:29:42;10.30;47.30
1367;DHT22;16877;48.810;9.282;2023-01-19T07:32:10;10.40;47.40
1367;DHT22;16877;48.810;9.282;2023-01-19T07:34:37;10.40;47.30
1367;DHT22;16877;48.810;9.282;2023-01-19T07:37:18;10.40;47.00
1367;DHT22;16877;48.810;9.282;2023-01-19T07:39:46;10.40;46.80
1367;DHT22;16877;48.810;9.282;2023-01-19T07:42:14;10.40;46.90
1367;DHT22;16877;48.810;9.282;2023-01-19T07:47:38;10.50;47.00
1367;DHT22;16877;48.810;9.282;2023-01-19T07:50:09;10.60;47.20
1367;DHT22;16877;48.810;9.282;2023-01-19T07:52:41;10.60;47.20
1367;DHT22;16877;48.810;9.282;2023-01-19T07:55:20;10.60;47.00
1367;DHT22;16877;48.810;9.282;2023-01-19T07:57:48;10.70;47.10
1367;DHT22;16877;48.810;9.282;2023-01-19T08:00:17;10.70;46.90
1367;DHT22;16877;48.810;9.282;2023-01-19T08:02:47;10.70;46.60
1367;DHT22;16877;48.810;9.282;2023-01-19T08:05:15;10.70;46.50
1367;DHT22;16877;48.810;9.282;2023-01-19T08:07:45;10.70;46.30
1367;DHT22;16877;48.810;9.282;2023-01-19T08:10:14;10.80;46.20
1367;DHT22;16877;48.810;9.282;2023-01-19T08:12:42;11.00;46.60
1367;DHT22;16877;48.810;9.282;2023-01-19T08:15:09;11.20;46.40
1367;DHT22;16877;48.810;9.282;2023-01-19T08:17:38;11.30;46.30
1367;DHT22;16877;48.810;9.282;2023-01-19T08:20:08;11.50;46.40
1367;DHT22;16877;48.810;9.282;2023-01-19T08:22:36;11.60;46.20
1367;DHT22;16877;48.810;9.282;2023-01-19T08:25:06;11.70;45.90
1367;DHT22;16877;48.810;9.282;2023-01-19T08:27:34;11.90;45.80
1367;DHT22;16877;48.810;9.282;2023-01-19T08:30:02;12.10;45.80
1367;DHT22;16877;48.810;9.282;2023-01-19T08:32:29;12.20;45.50
1367;DHT22;16877;48.810;9.282;2023-01-19T08:34:57;12.40;45.40
1367;DHT22;16877;48.810;9.282;2023-01-19T08:37:24;12.40;45.00
1367;DHT22;16877;48.810;9.282;2023-01-19T08:39:52;12.30;44.20
1367;DHT22;16877;48.810;9.282;2023-01-19T08:42:21;12.30;43.80
1367;DHT22;16877;48.810;9.282;2023-01-19T08:44:52;12.30;43.50
1367;DHT22;16877;48.810;9.282;2023-01-19T08:47:19;12.20;43.30
1367;DHT22;16877;48.810;9.282;2023-01-19T08:49:46;12.10;43.20
1367;DHT22;16877;48.810;9.282;2023-01-19T08:52:14;12.00;42.90
1367;DHT22;16877;48.810;9.282;2023-01-19T08:54:41;11.90;42.80
1367;DHT22;16877;48.810;9.282;2023-01-19T08:57:10;11.90;42.80
1367;DHT22;16877;48.810;9.282;2023-01-19T08:59:40;11.90;43.00
1367;DHT22;16877;48.810;9.282;2023-01-19T09:02:08;12.10;43.30
1367;DHT22;16877;48.810;9.282;2023-01-19T09:04:36;12.10;43.50
1367;DHT22;16877;48.810;9.282;2023-01-19T09:07:04;12.10;43.30
1367;DHT22;16877;48.810;9.282;2023-01-19T09:09:32;12.00;42.80
1367;DHT22;16877;48.810;9.282;2023-01-19T09:12:08;11.90;42.60
1367;DHT22;16877;48.810;9.282;2023-01-19T09:14:39;11.80;42.50
1367;DHT22;16877;48.810;9.282;2023-01-19T09:17:06;11.90;42.90
1367;DHT22;16877;48.810;9.282;2023-01-19T09:19:34;12.00;43.10
1367;DHT22;16877;48.810;9.282;2023-01-19T09:22:02;12.10;43.60
1367;DHT22;16877;48.810;9.282;2023-01-19T09:24:30;12.20;43.40
1367;DHT22;16877;48.810;9.282;2023-01-19T09:26:59;12.30;43.30
1367;DHT22;16877;48.810;9.282;2023-01-19T09:29:27;12.60;43.40
1367;DHT22;16877;48.810;9.282;2023-01-19T09:31:55;13.00;44.40
1367;DHT22;16877;48.810;9.282;2023-01-19T09:34:27;13.30;44.30
1367;DHT22;16877;48.810;9.282;2023-01-19T09:36:56;13.40;44.80
1367;DHT22;16877;48.810;9.282;2023-01-19T09:39:23;13.50;45.10
1367;DHT22;16877;48.810;9.282;2023-01-19T09:42:00;13.60;44.60
1367;DHT22;16877;48.810;9.282;2023-01-19T09:44:32;13.70;44.40
1367;DHT22;16877;48.810;9.282;2023-01-19T09:47:12;13.60;44.00
1367;DHT22;16877;48.810;9.282;2023-01-19T09:49:42;13.60;43.90
1367;DHT22;16877;48.810;9.282;2023-01-19T09:52:11;13.60;43.70
1367;DHT22;16877;48.810;9.282;2023-01-19T09:54:42;13.60;43.10
1367;DHT22;16877;48.810;9.282;2023-01-19T09:57:13;13.50;42.80
1367;DHT22;16877;48.810;9.282;2023-01-19T09:59:41;13.40;42.90
1367;DHT22;16877;48.810;9.282;2023-01-19T10:02:23;13.40;42.90
1367;DHT22;16877;48.810;9.282;2023-01-19T10:04:58;13.40;43.50
1367;DHT22;16877;48.810;9.282;2023-01-19T10:07:35;13.30;42.60
1367;DHT22;16877;48.810;9.282;2023-01-19T10:10:11;13.20;42.60
1367;DHT22;16877;48.810;9.282;2023-01-19T10:12:48;13.10;42.50
1367;DHT22;16877;48.810;9.282;2023-01-19T10:15:25;13.10;42.20
1367;DHT22;16877;48.810;9.282;2023-01-19T10:18:07;13.10;42.20
1367;DHT22;16877;48.810;9.282;2023-01-19T10:20:40;12.90;42.00
1367;DHT22;16877;48.810;9.282;2023-01-19T10:23:20;12.90;42.10
1367;DHT22;16877;48.810;9.282;2023-01-19T10:26:08;12.80;42.20
1367;DHT22;16877;48.810;9.282;2023-01-19T10:28:36;12.80;42.20
1367;DHT22;16877;48.810;9.282;2023-01-19T10:31:04;12.80;42.10
1367;DHT22;16877;48.810;9.282;2023-01-19T10:33:36;12.70;41.90
1367;DHT22;16877;48.810;9.282;2023-01-19T10:36:05;12.70;42.00
1367;DHT22;16877;48.810;9.282;2023-01-19T10:38:33;12.80;42.10
1367;DHT22;16877;48.810;9.282;2023-01-19T10:41:05;12.80;42.30
1367;DHT22;16877;48.810;9.282;2023-01-19T10:43:38;12.80;42.20
1367;DHT22;16877;48.810;9.282;2023-01-19T10:46:22;12.90;42.30
1367;DHT22;16877;48.810;9.282;2023-01-19T10:48:53;12.90;42.20
1367;DHT22;16877;48.810;9.282;2023-01-19T10:51:21;12.90;42.00
1367;DHT22;16877;48.810;9.282;2023-01-19T10:53:57;12.90;42.00
1367;DHT22;16877;48.810;9.282;2023-01-19T10:56:27;13.00;41.90
1367;DHT22;16877;48.810;9.282;2023-01-19T10:58:55;13.00;41.90
1367;DHT22;16877;48.810;9.282;2023-01-19T11:01:24;13.00;41.80
1367;DHT22;16877;48.810;9.282;2023-01-19T11:03:54;13.00;41.60
1367;DHT22;16877;48.810;9.282;2023-01-19T11:06:28;13.00;41.70
1367;DHT22;16877;48.810;9.282;2023-01-19T11:09:15;13.00;41.70
1367;DHT22;16877;48.810;9.282;2023-01-19T11:11:46;13.00;41.90
1367;DHT22;16877;48.810;9.282;2023-01-19T11:14:17;13.00;42.00
1367;DHT22;16877;48.810;9.282;2023-01-19T11:16:47;13.00;42.20
1367;DHT22;16877;48.810;9.282;2023-01-19T11:19:24;13.00;42.20
1367;DHT22;16877;48.810;9.282;2023-01-19T11:22:16;13.00;42.20
1367;DHT22;16877;48.810;9.282;2023-01-19T11:24:46;13.00;42.10
1367;DHT22;16877;48.810;9.282;2023-01-19T11:27:15;12.90;41.80
1367;DHT22;16877;48.810;9.282;2023-01-19T11:29:46;12.90;41.80
1367;DHT22;16877;48.810;9.282;2023-01-19T11:32:20;12.80;41.70
1367;DHT22;16877;48.810;9.282;2023-01-19T11:34:51;12.80;41.90
1367;DHT22;16877;48.810;9.282;2023-01-19T11:37:29;12.80;41.90
1367;DHT22;16877;48.810;9.282;2023-01-19T11:40:00;12.80;42.10
1367;DHT22;16877;48.810;9.282;2023-01-19T11:42:32;12.80;42.10
1367;DHT22;16877;48.810;9.282;2023-01-19T11:45:05;12.80;42.30
1367;DHT22;16877;48.810;9.282;2023-01-19T11:47:38;12.90;42.50
1367;DHT22;16877;48.810;9.282;2023-01-19T11:50:14;13.00;47.90
1367;DHT22;16877;48.810;9.282;2023-01-19T11:52:51;13.20;53.60
1367;DHT22;16877;48.810;9.282;2023-01-19T11:55:31;14.60;68.30
1367;DHT22;16877;48.810;9.282;2023-01-19T11:58:02;15.90;65.60
1367;DHT22;16877;48.810;9.282;2023-01-19T12:00:33;16.10;59.00
1367;DHT22;16877;48.810;9.282;2023-01-19T12:03:07;15.90;52.60
1367;DHT22;16877;48.810;9.282;2023-01-19T12:05:57;15.70;49.20
1367;DHT22;16877;48.810;9.282;2023-01-19T12:08:26;15.30;47.60
1367;DHT22;16877;48.810;9.282;2023-01-19T12:11:02;15.10;46.80
1367;DHT22;16877;48.810;9.282;2023-01-19T12:13:31;15.00;47.00
1367;DHT22;16877;48.810;9.282;2023-01-19T12:16:01;14.80;46.50
1367;DHT22;16877;48.810;9.282;2023-01-19T12:18:35;14.60;46.00
1367;DHT22;16877;48.810;9.282;2023-01-19T12:21:20;14.50;45.90
1367;DHT22;16877;48.810;9.282;2023-01-19T12:23:55;14.40;45.80
1367;DHT22;16877;48.810;9.282;2023-01-19T12:26:35;14.20;45.50
1367;DHT22;16877;48.810;9.282;2023-01-19T12:29:10;14.10;45.40
1367;DHT22;16877;48.810;9.282;2023-01-19T12:31:38;14.00;45.20
1367;DHT22;16877;48.810;9.282;2023-01-19T12:34:26;13.90;45.40
1367;DHT22;16877;48.810;9.282;2023-01-19T12:37:00;13.80;45.30
1367;DHT22;16877;48.810;9.282;2023-01-19T12:39:28;13.80;45.60
1367;DHT22;16877;48.810;9.282;2023-01-19T12:42:11;13.70;45.70
1367;DHT22;16877;48.810;9.282;2023-01-19T12:44:40;13.70;46.00
1367;DHT22;16877;48.810;9.282;2023-01-19T12:47:18;13.70;48.90
1367;DHT22;16877;48.810;9.282;2023-01-19T12:49:48;13.70;49.60
1367;DHT22;16877;48.810;9.282;2023-01-19T12:52:33;13.80;51.50
1367;DHT22;16877;48.810;9.282;2023-01-19T12:55:15;13.80;48.70
1367;DHT22;16877;48.810;9.282;2023-01-19T12:57:49;13.80;48.00
1367;DHT22;16877;48.810;9.282;2023-01-19T13:00:31;13.70;47.50
1367;DHT22;16877;48.810;9.282;2023-01-19T13:02:59;13.70;47.20
1367;DHT22;16877;48.810;9.282;2023-01-19T13:08:28;13.60;47.20
1367;DHT22;16877;48.810;9.282;2023-01-19T13:11:19;13.60;47.20
1367;DHT22;16877;48.810;9.282;2023-01-19T13:16:59;13.50;47.10
1367;DHT22;16877;48.810;9.282;2023-01-19T13:19:48;13.50;47.10
1367;DHT22;16877;48.810;9.282;2023-01-19T13:25:33;13.40;47.30
1367;DHT22;16877;48.810;9.282;2023-01-19T13:28:18;13.40;47.50
1367;DHT22;16877;48.810;9.282;2023-01-19T13:30:56;13.40;47.70
1367;DHT22;16877;48.810;9.282;2023-01-19T13:33:27;13.40;47.80
1367;DHT22;16877;48.810;9.282;2023-01-19T13:36:15;13.40;48.10
1367;DHT22;16877;48.810;9.282;2023-01-19T13:38:45;13.40;48.20
1367;DHT22;16877;48.810;9.282;2023-01-19T13:41:21;13.30;48.70
1367;DHT22;16877;48.810;9.282;2023-01-19T13:44:08;13.40;48.30
1367;DHT22;16877;48.810;9.282;2023-01-19T13:46:39;13.30;48.30
1367;DHT22;16877;48.810;9.282;2023-01-19T13:49:16;13.30;48.50
1367;DHT22;16877;48.810;9.282;2023-01-19T13:51:45;13.40;48.70
1367;DHT22;16877;48.810;9.282;2023-01-19T13:54:15;13.30;48.70
1367;DHT22;16877;48.810;9.282;2023-01-19T13:56:48;13.40;48.80
1367;DHT22;16877;48.810;9.282;2023-01-19T13:59:25;13.30;49.00
1367;DHT22;16877;48.810;9.282;2023-01-19T14:02:12;13.40;49.00
1367;DHT22;16877;48.810;9.282;2023-01-19T14:04:40;13.40;49.20
1367;DHT22;16877;48.810;9.282;2023-01-19T14:07:20;13.30;49.20
1367;DHT22;16877;48.810;9.282;2023-01-19T14:10:02;13.40;49.40
1367;DHT22;16877;48.810;9.282;2023-01-19T14:12:36;13.40;49.40
1367;DHT22;16877;48.810;9.282;2023-01-19T14:15:07;13.30;49.30
1367;DHT22;16877;48.810;9.282;2023-01-19T14:17:38;13.40;49.20
1367;DHT22;16877;48.810;9.282;2023-01-19T14:20:27;13.30;49.10
1367;DHT22;16877;48.810;9.282;2023-01-19T14:22:55;13.30;49.10
1367;DHT22;16877;48.810;9.282;2023-01-19T14:25:27;13.20;49.10
1367;DHT22;16877;48.810;9.282;2023-01-19T14:28:32;13.20;49.20
1367;DHT22;16877;48.810;9.282;2023-01-19T14:31:17;13.20;49.30
1367;DHT22;16877;48.810;9.282;2023-01-19T14:33:45;13.20;49.50
1367;DHT22;16877;48.810;9.282;2023-01-19T14:36:33;13.20;49.50
1367;DHT22;16877;48.810;9.282;2023-01-19T14:39:05;13.20;49.70
1367;DHT22;16877;48.810;9.282;2023-01-19T14:41:45;13.30;49.70
1367;DHT22;16877;48.810;9.282;2023-01-19T14:44:23;13.20;49.70
1367;DHT22;16877;48.810;9.282;2023-01-19T14:46:54;13.20;49.90
1367;DHT22;16877;48.810;9.282;2023-01-19T14:49:32;13.20;49.90
1367;DHT22;16877;48.810;9.282;2023-01-19T14:52:20;13.20;49.80
1367;DHT22;16877;48.810;9.282;2023-01-19T14:54:48;13.20;49.80
1367;DHT22;16877;48.810;9.282;2023-01-19T14:57:33;13.10;49.80
1367;DHT22;16877;48.810;9.282;2023-01-19T15:00:10;13.10;49.80
1367;DHT22;16877;48.810;9.282;2023-01-19T15:02:41;13.10;49.90
1367;DHT22;16877;48.810;9.282;2023-01-19T15:05:09;13.10;50.00
1367;DHT22;16877;48.810;9.282;2023-01-19T15:07:52;13.10;50.00
1367;DHT22;16877;48.810;9.282;2023-01-19T15:10:21;13.20;54.20
1367;DHT22;16877;48.810;9.282;2023-01-19T15:12:50;13.30;51.80
1367;DHT22;16877;48.810;9.282;2023-01-19T15:15:30;13.30;51.10
1367;DHT22;16877;48.810;9.282;2023-01-19T15:17:59;13.30;50.90
1367;DHT22;16877;48.810;9.282;2023-01-19T15:20:29;13.30;50.80
1367;DHT22;16877;48.810;9.282;2023-01-19T15:23:11;13.30;50.80
1367;DHT22;16877;48.810;9.282;2023-01-19T15:25:39;13.20;50.60
1367;DHT22;16877;48.810;9.282;2023-01-19T15:28:09;13.30;50.60
1367;DHT22;16877;48.810;9.282;2023-01-19T15:30:39;13.20;50.30
1367;DHT22;16877;48.810;9.282;2023-01-19T15:33:09;13.20;50.30
1367;DHT22;16877;48.810;9.282;2023-01-19T15:35:41;13.20;50.30
1367;DHT22;16877;48.810;9.282;2023-01-19T15:38:09;13.20;50.40
1367;DHT22;16877;48.810;9.282;2023-01-19T15:40:51;13.20;50.30
1367;DHT22;16877;48.810;9.282;2023-01-19T15:43:26;13.20;50.50
1367;DHT22;16877;48.810;9.282;2023-01-19T15:45:59;13.20;50.60
1367;DHT22;16877;48.810;9.282;2023-01-19T15:48:31;13.20;50.60
1367;DHT22;16877;48.810;9.282;2023-01-19T15:50:58;13.20;50.70
1367;DHT22;16877;48.810;9.282;2023-01-19T15:53:26;13.20;50.70
1367;DHT22;16877;48.810;9.282;2023-01-19T15:55:55;13.20;50.80
1367;DHT22;16877;48.810;9.282;2023-01-19T15:58:22;13.20;50.90
1367;DHT22;16877;48.810;9.282;2023-01-19T16:00:57;13.10;50.80
1367;DHT22;16877;48.810;9.282;2023-01-19T16:03:26;13.10;50.80
1367;DHT22;16877;48.810;9.282;2023-01-19T16:05:53;13.10;50.90
1367;DHT22;16877;48.810;9.282;2023-01-19T16:08:28;13.20;51.00
1367;DHT22;16877;48.810;9.282;2023-01-19T16:10:55;13.20;51.10
1367;DHT22;16877;48.810;9.282;2023-01-19T16:13:22;13.20;51.00
1367;DHT22;16877;48.810;9.282;2023-01-19T16:15:50;13.10;50.90
1367;DHT22;16877;48.810;9.282;2023-01-19T16:18:23;13.10;50.90
1367;DHT22;16877;48.810;9.282;2023-01-19T16:20:55;13.10;50.70
1367;DHT22;16877;48.810;9.282;2023-01-19T16:23:23;13.00;50.60
1367;DHT22;16877;48.810;9.282;2023-01-19T16:25:55;13.00;50.60
1367;DHT22;16877;48.810;9.282;2023-01-19T16:28:23;13.10;50.60